createdAt,value
2024-01-24T00:00:11.475Z,101756.59
2024-01-24T00:02:38.535Z,101756.13
2024-01-24T00:05:07.119Z,101743.97
2024-01-24T00:07:34.139Z,101734.75
2024-01-24T00:10:01.763Z,101739.53
2024-01-24T00:12:28.911Z,101731.28
2024-01-24T00:14:55.904Z,101730.47
2024-01-24T00:17:22.953Z,101730.25
2024-01-24T00:19:49.806Z,101733.19
2024-01-24T00:22:16.817Z,101737.66
2024-01-24T00:24:43.927Z,101743.16
2024-01-24T00:27:12.639Z,101754.47
2024-01-24T00:29:40.432Z,101750.47
2024-01-24T00:32:07.556Z,101751.94
2024-01-24T00:34:34.599Z,101752.38
2024-01-24T00:37:01.741Z,101753.13
2024-01-24T00:39:28.666Z,101744.22
2024-01-24T00:41:59.631Z,101752.16
2024-01-24T00:44:26.647Z,101737.75
2024-01-24T00:46:53.715Z,101733.22
2024-01-24T00:49:21.218Z,101738.91
2024-01-24T00:51:48.277Z,101737.53
2024-01-24T00:54:15.531Z,101733.22
2024-01-24T00:56:42.518Z,101731.28
2024-01-24T00:59:10.020Z,101721.56
2024-01-24T01:01:37.181Z,101721.19
2024-01-24T01:04:05.570Z,101709.69
2024-01-24T01:06:32.681Z,101713.81
2024-01-24T01:09:01.754Z,101711.16
2024-01-24T01:11:29.058Z,101707.69
2024-01-24T01:13:56.021Z,101704.38
2024-01-24T01:16:23.131Z,101701.59
2024-01-24T01:18:50.140Z,101699.03
2024-01-24T01:21:17.201Z,101692.91
2024-01-24T01:23:44.281Z,101687.72
2024-01-24T01:26:11.180Z,101680.50
2024-01-24T01:28:38.320Z,101691.41
2024-01-24T01:31:30.438Z,101692.06
2024-01-24T01:33:57.624Z,101685.69
2024-01-24T01:36:24.703Z,101690.78
2024-01-24T01:38:51.788Z,101683.28
2024-01-24T01:41:18.805Z,101681.28
2024-01-24T01:43:46.352Z,101673.19
2024-01-24T01:46:21.551Z,101678.03
2024-01-24T01:48:51.293Z,101675.66
2024-01-24T01:51:19.833Z,101670.38
2024-01-24T01:53:49.074Z,101676.59
2024-01-24T01:56:19.437Z,101677.81
2024-01-24T01:58:46.728Z,101670.97
2024-01-24T02:01:15.593Z,101676.41
2024-01-24T02:03:48.018Z,101680.09
2024-01-24T02:06:15.499Z,101672.22
2024-01-24T02:08:44.683Z,101672.53
2024-01-24T02:11:13.084Z,101673.94
2024-01-24T02:13:39.978Z,101672.81
2024-01-24T02:16:07.557Z,101675.75
2024-01-24T02:18:34.616Z,101665.78
2024-01-24T02:21:01.692Z,101666.59
2024-01-24T02:23:28.726Z,101657.41
2024-01-24T02:25:55.668Z,101656.56
2024-01-24T02:28:22.635Z,101649.91
2024-01-24T02:30:49.668Z,101647.84
2024-01-24T02:33:16.985Z,101635.25
2024-01-24T02:35:44.237Z,101637.72
2024-01-24T02:38:11.303Z,101644.38
2024-01-24T02:40:38.378Z,101638.69
2024-01-24T02:43:05.764Z,101640.19
2024-01-24T02:45:33.434Z,101643.38
2024-01-24T02:48:00.598Z,101632.56
2024-01-24T02:50:27.586Z,101625.66
2024-01-24T02:52:54.519Z,101632.69
2024-01-24T02:55:21.532Z,101625.59
2024-01-24T02:57:48.851Z,101610.44
2024-01-24T03:00:17.356Z,101607.44
2024-01-24T03:02:44.338Z,101605.41
2024-01-24T03:05:11.332Z,101602.16
2024-01-24T03:07:38.579Z,101598.44
2024-01-24T03:10:06.582Z,101596.72
2024-01-24T03:12:34.294Z,101592.41
2024-01-24T03:15:01.482Z,101586.88
2024-01-24T03:17:28.505Z,101587.03
2024-01-24T03:19:56.335Z,101579.66
2024-01-24T03:22:26.526Z,101584.25
2024-01-24T03:24:53.988Z,101579.91
2024-01-24T03:27:21.143Z,101563.75
2024-01-24T03:29:48.200Z,101563.44
2024-01-24T03:32:15.108Z,101558.88
2024-01-24T03:34:42.210Z,101564.69
2024-01-24T03:37:09.138Z,101567.00
2024-01-24T03:39:37.517Z,101561.47
2024-01-24T03:42:05.218Z,101570.72
2024-01-24T03:44:32.331Z,101567.25
2024-01-24T03:46:59.254Z,101550.19
2024-01-24T03:49:26.435Z,101553.75
2024-01-24T03:51:54.609Z,101547.31
2024-01-24T03:54:22.003Z,101543.66
2024-01-24T03:56:49.260Z,101545.06
2024-01-24T03:59:16.569Z,101542.84
2024-01-24T04:01:43.880Z,101529.78
2024-01-24T04:04:10.952Z,101526.69
2024-01-24T04:06:38.207Z,101521.72
2024-01-24T04:09:05.487Z,101527.25
2024-01-24T04:11:32.389Z,101522.19
2024-01-24T04:13:59.467Z,101523.22
2024-01-24T04:16:26.322Z,101533.72
2024-01-24T04:18:55.067Z,101538.44
2024-01-24T04:21:22.112Z,101541.56
2024-01-24T04:23:49.060Z,101519.97
2024-01-24T04:26:16.084Z,101515.59
2024-01-24T04:28:43.113Z,101499.69
2024-01-24T04:31:10.192Z,101497.06
2024-01-24T04:33:37.435Z,101500.19
2024-01-24T04:36:04.881Z,101488.16
2024-01-24T04:38:31.776Z,101484.53
2024-01-24T04:40:58.644Z,101483.81
2024-01-24T04:43:25.693Z,101464.94
2024-01-24T04:45:52.736Z,101460.63
2024-01-24T04:48:19.851Z,101456.38
2024-01-24T04:50:47.310Z,101451.47
2024-01-24T04:53:14.374Z,101446.00
2024-01-24T04:55:41.266Z,101439.28
2024-01-24T04:58:08.433Z,101441.19
2024-01-24T05:00:36.447Z,101446.50
2024-01-24T05:03:03.685Z,101436.50
2024-01-24T05:05:30.657Z,101434.69
2024-01-24T05:07:57.719Z,101429.03
2024-01-24T05:10:25.010Z,101456.63
2024-01-24T05:12:52.258Z,101468.09
2024-01-24T05:15:20.520Z,101477.97
2024-01-24T05:17:47.779Z,101467.13
2024-01-24T05:20:14.812Z,101450.00
2024-01-24T05:22:42.037Z,101436.38
2024-01-24T05:25:09.295Z,101443.38
2024-01-24T05:27:36.380Z,101450.59
2024-01-24T05:30:15.684Z,101465.03
2024-01-24T05:32:47.720Z,101453.72
2024-01-24T05:35:15.348Z,101451.91
2024-01-24T05:37:42.341Z,101440.25
2024-01-24T05:40:09.900Z,101415.44
2024-01-24T05:42:36.956Z,101412.78
2024-01-24T05:45:03.989Z,101416.66
2024-01-24T05:47:31.025Z,101423.13
2024-01-24T05:49:59.885Z,101426.13
2024-01-24T05:52:27.140Z,101425.28
2024-01-24T05:54:55.357Z,101427.47
2024-01-24T05:57:23.451Z,101425.78
2024-01-24T05:59:50.645Z,101423.03
2024-01-24T06:02:17.824Z,101425.66
2024-01-24T06:04:44.852Z,101420.34
2024-01-24T06:07:15.331Z,101426.88
2024-01-24T06:09:42.416Z,101413.59
2024-01-24T06:12:09.699Z,101411.09
2024-01-24T06:14:36.805Z,101421.69
2024-01-24T06:17:04.443Z,101415.69
2024-01-24T06:19:31.480Z,101402.31
2024-01-24T06:21:58.450Z,101384.38
2024-01-24T06:24:25.588Z,101394.47
2024-01-24T06:26:52.500Z,101387.94
2024-01-24T06:30:14.703Z,101398.31
2024-01-24T06:32:08.173Z,101385.78
2024-01-24T06:34:35.253Z,101378.97
2024-01-24T06:37:02.289Z,101396.28
2024-01-24T06:39:29.275Z,101377.88
2024-01-24T06:41:57.682Z,101391.34
2024-01-24T06:44:24.948Z,101389.50
2024-01-24T06:46:52.000Z,101382.81
2024-01-24T06:49:19.011Z,101376.06
2024-01-24T06:51:47.198Z,101369.53
2024-01-24T06:54:14.625Z,101375.41
2024-01-24T06:56:41.719Z,101363.03
2024-01-24T06:59:08.686Z,101384.47
2024-01-24T07:01:35.848Z,101392.59
2024-01-24T07:04:02.990Z,101373.16
2024-01-24T07:06:30.113Z,101374.00
2024-01-24T07:08:58.320Z,101382.28
2024-01-24T07:11:25.675Z,101366.97
2024-01-24T07:13:52.596Z,101362.13
2024-01-24T07:16:21.080Z,101367.50
2024-01-24T07:18:59.859Z,101362.22
2024-01-24T07:21:31.637Z,101347.78
2024-01-24T07:23:58.602Z,101344.44
2024-01-24T07:26:25.625Z,101360.44
2024-01-24T07:28:52.806Z,101370.78
2024-01-24T07:31:19.772Z,101365.13
2024-01-24T07:33:47.118Z,101367.38
2024-01-24T07:36:14.130Z,101339.88
2024-01-24T07:38:41.189Z,101337.69
2024-01-24T07:41:09.066Z,101335.56
2024-01-24T07:43:36.173Z,101347.72
2024-01-24T07:46:03.452Z,101348.22
2024-01-24T07:48:34.248Z,101355.00
2024-01-24T07:51:01.563Z,101352.50
2024-01-24T07:53:28.864Z,101334.22
2024-01-24T07:56:03.515Z,101320.44
2024-01-24T07:58:41.239Z,101321.16
2024-01-24T08:01:11.185Z,101317.41
2024-01-24T08:03:39.377Z,101325.41
2024-01-24T08:06:06.773Z,101314.41
2024-01-24T08:08:34.117Z,101327.53
2024-01-24T08:11:02.029Z,101309.69
2024-01-24T08:13:32.050Z,101305.13
2024-01-24T08:15:59.290Z,101300.25
2024-01-24T08:18:27.282Z,101296.44
2024-01-24T08:20:56.827Z,101295.75
2024-01-24T08:23:31.693Z,101280.66
2024-01-24T08:26:05.524Z,101289.97
2024-01-24T08:28:32.961Z,101285.06
2024-01-24T08:31:00.096Z,101292.41
2024-01-24T08:33:27.430Z,101299.91
2024-01-24T08:35:54.530Z,101274.88
2024-01-24T08:38:21.464Z,101290.25
2024-01-24T08:40:48.581Z,101293.22
2024-01-24T08:43:15.826Z,101285.34
2024-01-24T08:45:51.319Z,101272.72
2024-01-24T08:48:23.509Z,101248.31
2024-01-24T08:50:50.679Z,101247.13
2024-01-24T08:53:18.309Z,101236.22
2024-01-24T08:55:45.665Z,101241.66
2024-01-24T08:58:13.132Z,101249.09
2024-01-24T09:00:41.077Z,101232.91
2024-01-24T09:03:10.697Z,101236.31
2024-01-24T09:05:43.212Z,101216.97
2024-01-24T09:08:10.952Z,101219.25
2024-01-24T09:10:38.240Z,101212.31
2024-01-24T09:13:05.715Z,101225.31
2024-01-24T09:15:33.418Z,101212.56
2024-01-24T09:18:05.424Z,101214.72
2024-01-24T09:20:32.601Z,101212.19
2024-01-24T09:22:59.971Z,101198.81
2024-01-24T09:25:30.510Z,101217.78
2024-01-24T09:28:31.343Z,101208.97
2024-01-24T09:30:50.114Z,101200.56
2024-01-24T09:33:20.467Z,101200.50
2024-01-24T09:36:01.498Z,101200.28
2024-01-24T09:38:29.316Z,101187.84
2024-01-24T09:41:00.171Z,101188.22
2024-01-24T09:43:30.928Z,101190.50
2024-01-24T09:45:59.020Z,101194.16
2024-01-24T09:48:26.374Z,101194.44
2024-01-24T09:50:54.373Z,101180.66
2024-01-24T09:53:25.293Z,101172.19
2024-01-24T09:55:54.984Z,101174.09
2024-01-24T09:58:22.228Z,101178.38
2024-01-24T10:00:52.967Z,101169.25
2024-01-24T10:03:20.251Z,101169.53
2024-01-24T10:05:50.678Z,101167.94
2024-01-24T10:08:20.019Z,101165.97
2024-01-24T10:10:47.376Z,101161.94
2024-01-24T10:13:14.420Z,101157.50
2024-01-24T10:15:41.652Z,101149.78
2024-01-24T10:18:12.435Z,101147.63
2024-01-24T10:20:42.599Z,101133.47
2024-01-24T10:23:13.027Z,101116.63
2024-01-24T10:25:43.263Z,101102.19
2024-01-24T10:28:15.113Z,101094.16
2024-01-24T10:30:42.832Z,101072.13
2024-01-24T10:33:21.542Z,101051.38
2024-01-24T10:35:55.195Z,101055.84
2024-01-24T10:38:25.560Z,101059.00
2024-01-24T10:40:55.181Z,101033.03
2024-01-24T10:43:24.548Z,101034.75
2024-01-24T10:45:53.277Z,101041.94
2024-01-24T10:48:21.461Z,101025.94
2024-01-24T10:50:49.398Z,101030.84
2024-01-24T10:53:20.184Z,101022.16
2024-01-24T10:55:51.260Z,101014.28
2024-01-24T10:58:19.737Z,101013.31
2024-01-24T11:00:46.903Z,100989.88
2024-01-24T11:03:14.441Z,100988.88
2024-01-24T11:05:48.653Z,100986.69
2024-01-24T11:08:35.934Z,100974.03
2024-01-24T11:11:14.423Z,100977.84
2024-01-24T11:13:44.190Z,100971.19
2024-01-24T11:16:38.705Z,100974.38
2024-01-24T11:19:24.099Z,100963.00
2024-01-24T11:21:58.378Z,100943.28
2024-01-24T11:24:47.785Z,100956.41
2024-01-24T11:27:35.883Z,100949.69
2024-01-24T11:30:13.147Z,100944.75
2024-01-24T11:32:46.906Z,100940.50
2024-01-24T11:35:42.088Z,100921.38
2024-01-24T11:38:25.850Z,100919.84
2024-01-24T11:40:58.407Z,100921.53
2024-01-24T11:43:32.692Z,100922.22
2024-01-24T11:46:07.516Z,100924.72
2024-01-24T11:48:37.820Z,100919.72
2024-01-24T11:51:15.731Z,100900.63
2024-01-24T11:53:43.290Z,100874.75
2024-01-24T11:56:16.480Z,100873.41
2024-01-24T11:58:43.754Z,100859.06
2024-01-24T12:01:14.793Z,100856.91
2024-01-24T12:03:49.651Z,100861.28
2024-01-24T12:06:18.721Z,100855.91
2024-01-24T12:08:49.967Z,100851.69
2024-01-24T12:11:18.684Z,100853.16
2024-01-24T12:13:46.477Z,100838.25
2024-01-24T12:16:24.565Z,100839.47
2024-01-24T12:18:52.051Z,100820.44
2024-01-24T12:21:20.079Z,100815.97
2024-01-24T12:23:49.353Z,100810.31
2024-01-24T12:26:17.362Z,100797.78
2024-01-24T12:28:46.453Z,100792.28
2024-01-24T12:31:14.269Z,100780.81
2024-01-24T12:33:41.810Z,100788.03
2024-01-24T12:36:12.058Z,100786.09
2024-01-24T12:38:39.313Z,100783.25
2024-01-24T12:41:06.497Z,100788.16
2024-01-24T12:43:33.683Z,100783.09
2024-01-24T12:46:09.155Z,100802.03
2024-01-24T12:48:38.739Z,100798.75
2024-01-24T12:51:07.420Z,100781.03
2024-01-24T12:53:35.099Z,100777.25
2024-01-24T12:56:02.674Z,100766.03
2024-01-24T12:58:29.843Z,100770.47
2024-01-24T13:00:57.152Z,100766.78
2024-01-24T13:03:24.623Z,100745.91
2024-01-24T13:05:54.002Z,100745.91
2024-01-24T13:08:22.183Z,100729.81
2024-01-24T13:10:50.146Z,100730.91
2024-01-24T13:13:17.908Z,100730.00
2024-01-24T13:15:45.602Z,100737.31
2024-01-24T13:18:12.840Z,100721.22
2024-01-24T13:20:41.525Z,100719.75
2024-01-24T13:23:08.529Z,100720.84
2024-01-24T13:25:35.850Z,100707.88
2024-01-24T13:28:04.230Z,100710.41
2024-01-24T13:30:32.783Z,100697.38
2024-01-24T13:33:00.096Z,100691.81
2024-01-24T13:35:27.225Z,100694.75
2024-01-24T13:37:54.312Z,100687.56
2024-01-24T13:40:21.343Z,100698.75
2024-01-24T13:42:48.828Z,100677.56
2024-01-24T13:45:16.169Z,100677.41
2024-01-24T13:47:43.288Z,100674.78
2024-01-24T13:50:11.481Z,100669.50
2024-01-24T13:52:40.353Z,100649.53
2024-01-24T13:55:09.920Z,100649.66
2024-01-24T13:57:39.743Z,100642.28
2024-01-24T14:00:13.090Z,100651.34
2024-01-24T14:02:40.177Z,100655.31
2024-01-24T14:05:11.162Z,100643.38
2024-01-24T14:07:40.413Z,100636.47
2024-01-24T14:10:08.419Z,100627.38
2024-01-24T14:12:35.803Z,100632.50
2024-01-24T14:15:15.300Z,100616.97
2024-01-24T14:17:50.832Z,100612.66
2024-01-24T14:20:19.124Z,100632.25
2024-01-24T14:22:46.184Z,100626.13
2024-01-24T14:25:13.518Z,100630.28
2024-01-24T14:27:42.240Z,100625.16
2024-01-24T14:30:09.406Z,100624.53
2024-01-24T14:32:39.917Z,100603.47
2024-01-24T14:35:08.448Z,100592.97
2024-01-24T14:37:36.216Z,100611.16
2024-01-24T14:40:03.991Z,100612.91
2024-01-24T14:42:31.277Z,100576.44
2024-01-24T14:45:00.485Z,100604.66
2024-01-24T14:47:28.028Z,100576.03
2024-01-24T14:49:55.391Z,100596.81
2024-01-24T14:52:22.401Z,100598.28
2024-01-24T14:54:49.529Z,100590.16
2024-01-24T14:57:16.907Z,100608.22
2024-01-24T14:59:44.139Z,100596.03
2024-01-24T15:02:11.014Z,100597.88
2024-01-24T15:04:42.240Z,100608.44
2024-01-24T15:07:09.341Z,100597.31
2024-01-24T15:09:37.082Z,100573.59
2024-01-24T15:12:05.775Z,100592.19
2024-01-24T15:14:32.925Z,100592.03
2024-01-24T15:17:00.275Z,100590.50
2024-01-24T15:19:27.347Z,100566.78
2024-01-24T15:21:55.422Z,100578.53
2024-01-24T15:24:23.394Z,100569.63
2024-01-24T15:26:50.859Z,100567.72
2024-01-24T15:29:17.871Z,100571.66
2024-01-24T15:31:44.873Z,100580.50
2024-01-24T15:34:14.792Z,100580.06
2024-01-24T15:36:43.051Z,100590.38
2024-01-24T15:39:13.478Z,100587.84
2024-01-24T15:41:42.514Z,100593.72
2024-01-24T15:44:09.877Z,100605.91
2024-01-24T15:46:37.280Z,100609.47
2024-01-24T15:49:04.697Z,100616.53
2024-01-24T15:51:32.070Z,100617.94
2024-01-24T15:53:59.173Z,100631.28
2024-01-24T15:56:26.256Z,100625.59
2024-01-24T15:58:53.409Z,100627.47
2024-01-24T16:01:20.969Z,100627.47
2024-01-24T16:03:48.126Z,100609.34
2024-01-24T16:06:15.320Z,100631.03
2024-01-24T16:08:42.293Z,100637.03
2024-01-24T16:11:09.330Z,100633.25
2024-01-24T16:13:36.264Z,100627.22
2024-01-24T16:16:03.947Z,100628.44
2024-01-24T16:18:31.049Z,100614.53
2024-01-24T16:20:58.084Z,100622.94
2024-01-24T16:23:25.094Z,100624.53
2024-01-24T16:25:52.320Z,100626.00
2024-01-24T16:28:19.366Z,100636.41
2024-01-24T16:30:46.766Z,100606.56
2024-01-24T16:33:15.084Z,100617.22
2024-01-24T16:35:42.175Z,100621.78
2024-01-24T16:38:09.723Z,100629.56
2024-01-24T16:40:36.804Z,100626.25
2024-01-24T16:43:05.270Z,100628.56
2024-01-24T16:45:32.346Z,100624.84
2024-01-24T16:47:59.397Z,100620.78
2024-01-24T16:50:26.394Z,100624.47
2024-01-24T16:52:53.484Z,100622.31
2024-01-24T16:55:20.651Z,100636.78
2024-01-24T16:57:47.773Z,100654.38
2024-01-24T17:00:15.201Z,100651.50
2024-01-24T17:02:46.750Z,100658.25
2024-01-24T17:05:19.312Z,100660.31
2024-01-24T17:07:46.410Z,100649.84
2024-01-24T17:10:15.782Z,100665.16
2024-01-24T17:12:42.990Z,100658.41
2024-01-24T17:15:14.549Z,100673.66
2024-01-24T17:17:42.156Z,100669.75
2024-01-24T17:20:09.628Z,100676.50
2024-01-24T17:22:36.966Z,100695.34
2024-01-24T17:25:04.529Z,100682.59
2024-01-24T17:27:32.771Z,100690.72
2024-01-24T17:29:59.726Z,100687.41
2024-01-24T17:32:26.813Z,100695.69
2024-01-24T17:34:54.397Z,100686.44
2024-01-24T17:37:21.957Z,100695.50
2024-01-24T17:39:50.124Z,100694.66
2024-01-24T17:42:18.524Z,100692.25
2024-01-24T17:44:45.668Z,100689.19
2024-01-24T17:47:13.148Z,100706.50
2024-01-24T17:49:40.344Z,100691.59
2024-01-24T17:52:08.073Z,100681.56
2024-01-24T17:54:35.268Z,100680.28
2024-01-24T17:57:03.190Z,100693.88
2024-01-24T17:59:30.228Z,100686.75
2024-01-24T18:01:57.812Z,100691.81
2024-01-24T18:04:25.794Z,100705.91
2024-01-24T18:06:53.340Z,100700.91
2024-01-24T18:09:21.829Z,100695.47
2024-01-24T18:11:49.100Z,100714.16
2024-01-24T18:14:16.115Z,100722.84
2024-01-24T18:16:43.278Z,100716.28
2024-01-24T18:19:10.677Z,100731.63
2024-01-24T18:21:37.675Z,100724.16
2024-01-24T18:24:06.223Z,100714.44
2024-01-24T18:26:33.403Z,100698.59
2024-01-24T18:29:02.335Z,100700.72
2024-01-24T18:31:29.350Z,100706.53
2024-01-24T18:33:56.664Z,100719.38
2024-01-24T18:36:24.162Z,100708.47
2024-01-24T18:38:51.220Z,100696.09
2024-01-24T18:41:19.160Z,100704.00
2024-01-24T18:43:48.697Z,100709.81
2024-01-24T18:46:20.375Z,100693.03
2024-01-24T18:48:48.090Z,100702.84
2024-01-24T18:51:17.784Z,100706.34
2024-01-24T18:53:48.182Z,100709.69
2024-01-24T18:56:16.710Z,100693.97
2024-01-24T18:58:43.846Z,100686.22
2024-01-24T19:01:11.534Z,100687.22
2024-01-24T19:03:39.084Z,100696.22
2024-01-24T19:06:06.804Z,100708.78
2024-01-24T19:08:37.202Z,100700.22
2024-01-24T19:11:05.290Z,100675.13
2024-01-24T19:13:32.766Z,100712.41
2024-01-24T19:16:00.313Z,100709.47
2024-01-24T19:18:30.563Z,100702.78
2024-01-24T19:20:58.036Z,100696.06
2024-01-24T19:23:25.139Z,100704.38
2024-01-24T19:25:52.634Z,100684.78
2024-01-24T19:28:20.699Z,100689.47
2024-01-24T19:30:50.043Z,100677.66
2024-01-24T19:33:17.888Z,100684.66
2024-01-24T19:35:45.045Z,100694.22
2024-01-24T19:38:13.096Z,100691.59
2024-01-24T19:40:40.200Z,100707.34
2024-01-24T19:43:07.461Z,100710.84
2024-01-24T19:45:34.656Z,100713.97
2024-01-24T19:48:01.924Z,100702.03
2024-01-24T19:50:29.448Z,100710.91
2024-01-24T19:52:56.962Z,100713.81
2024-01-24T19:55:25.193Z,100731.13
2024-01-24T19:57:52.366Z,100731.44
2024-01-24T20:00:22.829Z,100746.78
2024-01-24T20:02:49.985Z,100732.94
2024-01-24T20:05:17.927Z,100749.84
2024-01-24T20:07:45.875Z,100761.97
2024-01-24T20:10:13.359Z,100762.16
2024-01-24T20:12:40.464Z,100769.78
2024-01-24T20:15:10.391Z,100778.66
2024-01-24T20:17:46.556Z,100771.38
2024-01-24T20:20:15.808Z,100769.69
2024-01-24T20:22:46.881Z,100772.88
2024-01-24T20:25:14.264Z,100776.28
2024-01-24T20:27:43.907Z,100776.88
2024-01-24T20:30:11.857Z,100781.84
2024-01-24T20:32:45.396Z,100750.09
2024-01-24T20:35:20.708Z,100743.91
2024-01-24T20:37:47.991Z,100763.34
2024-01-24T20:40:15.117Z,100763.25
2024-01-24T20:42:42.400Z,100757.91
2024-01-24T20:45:09.879Z,100765.47
2024-01-24T20:47:37.432Z,100762.41
2024-01-24T20:50:05.556Z,100755.13
2024-01-24T20:52:32.915Z,100749.94
2024-01-24T20:55:00.584Z,100766.97
2024-01-24T20:57:28.880Z,100765.53
2024-01-24T20:59:57.555Z,100769.25
2024-01-24T21:02:24.954Z,100779.44
2024-01-24T21:04:53.121Z,100775.28
2024-01-24T21:07:21.014Z,100750.88
2024-01-24T21:09:48.191Z,100773.72
2024-01-24T21:12:15.280Z,100776.94
2024-01-24T21:14:42.711Z,100774.75
2024-01-24T21:17:09.843Z,100784.38
2024-01-24T21:19:38.251Z,100760.78
2024-01-24T21:22:05.728Z,100780.75
2024-01-24T21:24:32.947Z,100766.31
2024-01-24T21:27:00.410Z,100752.47
2024-01-24T21:29:29.989Z,100778.91
2024-01-24T21:31:57.128Z,100784.00
2024-01-24T21:34:24.423Z,100796.84
2024-01-24T21:36:51.658Z,100785.00
2024-01-24T21:39:18.825Z,100779.53
2024-01-24T21:41:45.887Z,100786.09
2024-01-24T21:44:12.842Z,100800.88
2024-01-24T21:46:39.772Z,100803.84
2024-01-24T21:49:07.111Z,100822.31
2024-01-24T21:51:34.200Z,100831.84
2024-01-24T21:54:02.363Z,100847.09
2024-01-24T21:56:29.473Z,100869.50
2024-01-24T21:58:56.778Z,100871.22
2024-01-24T22:01:24.732Z,100864.84
2024-01-24T22:03:52.476Z,100853.69
2024-01-24T22:06:19.767Z,100839.72
2024-01-24T22:08:47.059Z,100848.50
2024-01-24T22:11:15.704Z,100831.59
2024-01-24T22:13:43.096Z,100820.72
2024-01-24T22:16:13.349Z,100823.72
2024-01-24T22:18:44.794Z,100837.25
2024-01-24T22:21:18.961Z,100840.50
2024-01-24T22:23:46.349Z,100840.88
2024-01-24T22:26:13.632Z,100843.97
2024-01-24T22:28:41.117Z,100863.66
2024-01-24T22:31:08.349Z,100849.69
2024-01-24T22:33:36.464Z,100847.78
2024-01-24T22:36:04.064Z,100851.56
2024-01-24T22:38:31.604Z,100841.59
2024-01-24T22:41:01.510Z,100836.75
2024-01-24T22:43:32.366Z,100849.88
2024-01-24T22:45:59.444Z,100850.94
2024-01-24T22:48:27.388Z,100849.63
2024-01-24T22:50:54.494Z,100848.25
2024-01-24T22:53:23.829Z,100864.78
2024-01-24T22:55:51.330Z,100861.69
2024-01-24T22:58:21.679Z,100861.22
2024-01-24T23:00:49.698Z,100849.25
2024-01-24T23:03:16.755Z,100860.41
2024-01-24T23:05:43.782Z,100877.44
2024-01-24T23:08:13.939Z,100882.56
2024-01-24T23:10:44.391Z,100868.59
2024-01-24T23:13:11.513Z,100871.00
2024-01-24T23:15:38.564Z,100887.63
2024-01-24T23:18:05.850Z,100871.72
2024-01-24T23:20:32.856Z,100873.66
2024-01-24T23:22:59.838Z,100871.06
2024-01-24T23:25:27.115Z,100851.44
2024-01-24T23:27:54.332Z,100838.97
2024-01-24T23:30:21.331Z,100844.28
2024-01-24T23:32:48.544Z,100828.25
2024-01-24T23:35:15.820Z,100828.69
2024-01-24T23:37:43.108Z,100838.81
2024-01-24T23:40:10.790Z,100826.63
2024-01-24T23:42:39.527Z,100820.72
2024-01-24T23:45:07.163Z,100821.09
2024-01-24T23:47:34.321Z,100848.91
2024-01-24T23:50:01.645Z,100849.97
2024-01-24T23:52:29.044Z,100856.88
2024-01-24T23:54:56.195Z,100870.09
2024-01-24T23:57:24.472Z,100877.19
2024-01-24T23:59:51.841Z,100888.59
